createdAt,value
2019-04-06T00:01:14.728Z,49.63
2019-04-06T00:02:29.654Z,50.85
2019-04-06T00:03:42.917Z,48.73
2019-04-06T00:04:56.163Z,51.20
2019-04-06T00:06:09.654Z,54.18
2019-04-06T00:07:23.901Z,50.30
2019-04-06T00:08:37.224Z,53.65
2019-04-06T00:09:50.525Z,52.62
2019-04-06T00:11:03.845Z,51.40
2019-04-06T00:12:17.239Z,49.90
2019-04-06T00:13:30.571Z,49.67
2019-04-06T00:14:43.923Z,53.70
2019-04-06T00:15:57.259Z,52.03
2019-04-06T00:17:10.570Z,51.48
2019-04-06T00:18:23.819Z,52.33
2019-04-06T00:19:37.097Z,51.33
2019-04-06T00:20:50.499Z,52.48
2019-04-06T00:22:03.876Z,51.33
2019-04-06T00:23:17.195Z,51.42
2019-04-06T00:24:30.544Z,54.03
2019-04-06T00:25:45.010Z,48.52
2019-04-06T00:26:58.421Z,52.93
2019-04-06T00:28:11.872Z,56.88
2019-04-06T00:29:25.207Z,52.13
2019-04-06T00:30:42.730Z,52.23
2019-04-06T00:32:14.026Z,51.18
2019-04-06T00:33:29.212Z,54.98
2019-04-06T00:34:42.771Z,53.90
2019-04-06T00:35:56.082Z,54.03
2019-04-06T00:37:09.396Z,50.43
2019-04-06T00:38:22.650Z,47.33
2019-04-06T00:39:35.951Z,48.30
2019-04-06T00:40:50.076Z,49.40
2019-04-06T00:42:03.345Z,46.23
2019-04-06T00:43:16.693Z,55.10
2019-04-06T00:44:30.027Z,48.58
2019-04-06T00:45:43.367Z,48.50
2019-04-06T00:46:56.744Z,57.20
2019-04-06T00:48:11.419Z,49.45
2019-04-06T00:49:24.692Z,49.35
2019-04-06T00:50:37.951Z,45.70
2019-04-06T00:51:51.485Z,45.80
2019-04-06T00:53:05.469Z,50.73
2019-04-06T00:54:18.720Z,48.48
2019-04-06T00:55:31.990Z,48.05
2019-04-06T00:56:45.251Z,40.95
2019-04-06T00:57:58.518Z,51.23
2019-04-06T00:59:11.780Z,56.70
2019-04-06T01:00:25.031Z,47.08
2019-04-06T01:01:38.350Z,47.85
2019-04-06T01:02:51.716Z,49.67
2019-04-06T01:04:05.018Z,43.87
2019-04-06T01:05:19.960Z,48.55
2019-04-06T01:06:33.177Z,47.25
2019-04-06T01:07:47.420Z,47.40
2019-04-06T01:09:00.674Z,52.50
2019-04-06T01:10:15.596Z,44.13
2019-04-06T01:11:31.700Z,49.13
2019-04-06T01:12:44.433Z,48.17
2019-04-06T01:13:57.682Z,46.18
2019-04-06T01:15:10.918Z,47.45
2019-04-06T01:16:24.201Z,49.75
2019-04-06T01:17:37.504Z,50.28
2019-04-06T01:18:50.778Z,40.75
2019-04-06T01:20:04.837Z,47.78
2019-04-06T01:21:20.096Z,47.45
2019-04-06T01:22:33.430Z,43.23
2019-04-06T01:23:47.909Z,45.70
2019-04-06T01:25:01.158Z,48.00
2019-04-06T01:26:14.411Z,45.65
2019-04-06T01:27:27.668Z,49.63
2019-04-06T01:28:42.688Z,42.50
2019-04-06T01:29:56.008Z,48.87
2019-04-06T01:31:09.249Z,49.25
2019-04-06T01:32:22.516Z,44.45
2019-04-06T01:33:35.777Z,47.88
2019-04-06T01:34:49.005Z,46.68
2019-04-06T01:36:02.272Z,52.53
2019-04-06T01:37:15.509Z,45.55
2019-04-06T01:38:28.755Z,41.85
2019-04-06T01:39:42.196Z,51.58
2019-04-06T01:40:55.442Z,47.88
2019-04-06T01:42:08.805Z,49.95
2019-04-06T01:43:22.150Z,42.83
2019-04-06T01:44:35.525Z,45.85
2019-04-06T01:45:48.827Z,45.48
2019-04-06T01:47:02.078Z,45.23
2019-04-06T01:48:15.328Z,49.63
2019-04-06T01:49:28.595Z,44.45
2019-04-06T01:50:41.837Z,44.58
2019-04-06T01:51:55.157Z,46.25
2019-04-06T01:53:08.395Z,44.08
2019-04-06T01:54:21.594Z,47.48
2019-04-06T01:55:34.868Z,44.58
2019-04-06T01:56:48.240Z,44.53
2019-04-06T01:58:01.563Z,44.65
2019-04-06T01:59:14.803Z,46.65
2019-04-06T02:00:28.062Z,47.20
2019-04-06T02:01:52.065Z,47.48
2019-04-06T02:03:05.388Z,46.28
2019-04-06T02:04:18.757Z,47.95
2019-04-06T02:05:32.116Z,45.23
2019-04-06T02:06:45.405Z,46.45
2019-04-06T02:07:58.687Z,42.25
2019-04-06T02:09:11.931Z,47.53
2019-04-06T02:10:25.292Z,46.42
2019-04-06T02:11:38.661Z,46.23
2019-04-06T02:12:52.169Z,42.30
2019-04-06T02:14:05.425Z,48.02
2019-04-06T02:15:20.979Z,43.83
2019-04-06T02:16:34.596Z,46.90
2019-04-06T02:17:47.851Z,44.25
2019-04-06T02:19:01.118Z,43.80
2019-04-06T02:20:14.448Z,45.67
2019-04-06T02:21:27.708Z,41.75
2019-04-06T02:22:40.988Z,45.28
2019-04-06T02:23:54.236Z,43.08
2019-04-06T02:25:07.520Z,46.15
2019-04-06T02:26:29.656Z,42.30
2019-04-06T02:27:35.946Z,48.30
2019-04-06T02:28:49.260Z,41.00
2019-04-06T02:30:19.358Z,42.33
2019-04-06T02:31:49.578Z,43.60
2019-04-06T02:33:15.002Z,39.55
2019-04-06T02:34:32.902Z,41.28
2019-04-06T02:35:50.966Z,43.55
2019-04-06T02:37:05.927Z,43.65
2019-04-06T02:38:26.985Z,38.30
2019-04-06T02:39:54.060Z,42.17
2019-04-06T02:41:08.974Z,39.63
2019-04-06T02:42:24.111Z,39.53
2019-04-06T02:43:39.039Z,41.15
2019-04-06T02:44:52.514Z,43.83
2019-04-06T02:46:05.945Z,42.93
2019-04-06T02:47:19.193Z,39.05
2019-04-06T02:48:32.509Z,42.25
2019-04-06T02:49:45.799Z,39.67
2019-04-06T02:50:59.102Z,44.48
2019-04-06T02:52:12.377Z,40.50
2019-04-06T02:53:25.619Z,46.42
2019-04-06T02:54:38.902Z,42.23
2019-04-06T02:55:52.156Z,38.55
2019-04-06T02:57:05.808Z,41.88
2019-04-06T02:58:19.392Z,41.85
2019-04-06T02:59:32.665Z,42.62
2019-04-06T03:00:45.901Z,46.10
2019-04-06T03:01:59.164Z,44.38
2019-04-06T03:03:12.435Z,45.83
2019-04-06T03:04:25.766Z,44.18
2019-04-06T03:05:39.056Z,43.08
2019-04-06T03:06:52.405Z,40.98
2019-04-06T03:08:05.694Z,39.13
2019-04-06T03:09:19.297Z,42.75
2019-04-06T03:10:32.642Z,39.60
2019-04-06T03:11:45.880Z,42.25
2019-04-06T03:12:59.139Z,40.30
2019-04-06T03:14:12.465Z,43.20
2019-04-06T03:15:25.733Z,39.83
2019-04-06T03:16:39.112Z,43.08
2019-04-06T03:17:52.356Z,42.85
2019-04-06T03:19:05.657Z,42.70
2019-04-06T03:20:18.905Z,42.15
2019-04-06T03:21:32.175Z,44.53
2019-04-06T03:22:45.545Z,41.25
2019-04-06T03:23:58.817Z,42.40
2019-04-06T03:25:12.094Z,43.05
2019-04-06T03:26:25.379Z,38.48
2019-04-06T03:27:38.760Z,40.20
2019-04-06T03:28:52.373Z,44.95
2019-04-06T03:30:08.848Z,41.58
2019-04-06T03:31:26.089Z,39.80
2019-04-06T03:32:37.155Z,43.00
2019-04-06T03:33:50.610Z,43.25
2019-04-06T03:35:03.972Z,44.58
2019-04-06T03:36:17.349Z,42.13
2019-04-06T03:37:30.843Z,40.75
2019-04-06T03:38:44.231Z,41.77
2019-04-06T03:39:57.492Z,44.95
2019-04-06T03:41:10.752Z,42.33
2019-04-06T03:42:23.989Z,43.98
2019-04-06T03:43:37.264Z,48.48
2019-04-06T03:44:50.529Z,44.05
2019-04-06T03:46:03.844Z,41.10
2019-04-06T03:47:17.626Z,47.73
2019-04-06T03:48:30.942Z,42.13
2019-04-06T03:49:44.188Z,48.02
2019-04-06T03:50:57.647Z,39.58
2019-04-06T03:52:10.952Z,45.40
2019-04-06T03:53:24.230Z,45.30
2019-04-06T03:54:37.548Z,40.78
2019-04-06T03:55:50.973Z,48.95
2019-04-06T03:57:14.410Z,45.15
2019-04-06T03:58:19.490Z,45.28
2019-04-06T03:59:32.825Z,39.83
2019-04-06T04:00:46.629Z,41.75
2019-04-06T04:01:59.915Z,41.23
2019-04-06T04:03:13.183Z,42.80
2019-04-06T04:04:26.431Z,43.73
2019-04-06T04:05:39.666Z,41.20
2019-04-06T04:06:52.910Z,46.68
2019-04-06T04:08:06.195Z,42.80
2019-04-06T04:09:19.794Z,46.02
2019-04-06T04:10:36.628Z,41.70
2019-04-06T04:11:49.942Z,49.08
2019-04-06T04:13:03.276Z,44.63
2019-04-06T04:14:16.858Z,42.60
2019-04-06T04:15:30.349Z,43.85
2019-04-06T04:16:43.605Z,43.60
2019-04-06T04:17:57.169Z,44.08
2019-04-06T04:19:10.491Z,46.45
2019-04-06T04:20:23.764Z,43.23
2019-04-06T04:21:37.050Z,47.43
2019-04-06T04:22:50.379Z,44.70
2019-04-06T04:24:03.695Z,41.60
2019-04-06T04:25:16.975Z,44.50
2019-04-06T04:26:30.267Z,42.83
2019-04-06T04:27:43.517Z,45.28
2019-04-06T04:28:56.965Z,44.90
2019-04-06T04:30:10.512Z,43.90
2019-04-06T04:31:24.030Z,44.38
2019-04-06T04:32:37.312Z,46.98
2019-04-06T04:33:50.630Z,46.48
2019-04-06T04:35:04.724Z,44.40
2019-04-06T04:36:17.998Z,44.77
2019-04-06T04:37:32.056Z,44.70
2019-04-06T04:38:45.337Z,49.10
2019-04-06T04:39:58.610Z,43.92
2019-04-06T04:41:11.863Z,44.93
2019-04-06T04:42:25.209Z,45.17
2019-04-06T04:43:38.440Z,39.30
2019-04-06T04:44:51.754Z,45.10
2019-04-06T04:46:04.980Z,44.15
2019-04-06T04:47:18.288Z,44.50
2019-04-06T04:48:31.665Z,47.30
2019-04-06T04:49:44.947Z,43.20
2019-04-06T04:50:58.277Z,41.80
2019-04-06T04:52:11.525Z,44.55
2019-04-06T04:53:24.790Z,45.58
2019-04-06T04:54:38.079Z,44.53
2019-04-06T04:55:51.396Z,43.63
2019-04-06T04:57:04.891Z,39.35
2019-04-06T04:58:18.171Z,44.08
2019-04-06T04:59:32.107Z,46.58
2019-04-06T05:00:45.474Z,44.90
2019-04-06T05:01:58.764Z,46.35
2019-04-06T05:03:12.040Z,40.73
2019-04-06T05:04:25.363Z,43.00
2019-04-06T05:05:38.724Z,46.80
2019-04-06T05:06:52.240Z,47.73
2019-04-06T05:08:05.899Z,43.90
2019-04-06T05:09:19.308Z,46.45
2019-04-06T05:10:32.552Z,47.43
2019-04-06T05:11:45.861Z,46.35
2019-04-06T05:12:59.424Z,46.88
2019-04-06T05:14:49.058Z,48.65
2019-04-06T05:16:14.548Z,47.88
2019-04-06T05:17:27.879Z,46.40
2019-04-06T05:18:41.477Z,49.77
2019-04-06T05:19:54.724Z,46.70
2019-04-06T05:21:08.111Z,44.18
2019-04-06T05:22:21.463Z,47.27
2019-04-06T05:23:34.942Z,48.50
2019-04-06T05:24:48.225Z,47.33
2019-04-06T05:26:02.842Z,51.18
2019-04-06T05:27:16.123Z,46.70
2019-04-06T05:28:29.423Z,51.02
2019-04-06T05:29:42.676Z,50.17
2019-04-06T05:30:55.958Z,47.10
2019-04-06T05:32:09.335Z,43.75
2019-04-06T05:33:22.638Z,48.25
2019-04-06T05:34:36.234Z,46.58
2019-04-06T05:35:49.514Z,46.20
2019-04-06T05:37:02.771Z,45.90
2019-04-06T05:38:16.025Z,47.85
2019-04-06T05:39:29.263Z,40.43
2019-04-06T05:40:42.521Z,43.02
2019-04-06T05:41:56.656Z,43.28
2019-04-06T05:43:09.915Z,41.88
2019-04-06T05:44:23.168Z,41.80
2019-04-06T05:45:36.494Z,40.85
2019-04-06T05:46:49.786Z,47.98
2019-04-06T05:48:03.333Z,40.55
2019-04-06T05:49:16.677Z,42.80
2019-04-06T05:50:29.951Z,43.23
2019-04-06T05:51:43.231Z,42.48
2019-04-06T05:52:56.754Z,42.05
2019-04-06T05:54:09.997Z,44.75
2019-04-06T05:55:24.439Z,50.40
2019-04-06T05:56:38.215Z,43.33
2019-04-06T05:58:02.412Z,48.45
2019-04-06T05:59:10.095Z,43.78
2019-04-06T06:00:21.477Z,44.33
2019-04-06T06:01:34.771Z,42.55
2019-04-06T06:02:49.662Z,44.93
2019-04-06T06:04:03.163Z,47.20
2019-04-06T06:05:16.579Z,45.85
2019-04-06T06:06:29.865Z,45.52
2019-04-06T06:07:43.195Z,47.13
2019-04-06T06:08:56.611Z,46.37
2019-04-06T06:10:09.889Z,43.80
2019-04-06T06:11:23.147Z,45.28
2019-04-06T06:12:36.618Z,44.60
2019-04-06T06:13:50.042Z,48.73
2019-04-06T06:15:06.240Z,49.88
2019-04-06T06:16:19.509Z,45.90
2019-04-06T06:17:32.753Z,39.90
2019-04-06T06:18:46.000Z,43.55
2019-04-06T06:19:59.297Z,47.43
2019-04-06T06:21:12.607Z,44.85
2019-04-06T06:22:25.911Z,47.08
2019-04-06T06:23:39.172Z,45.17
2019-04-06T06:24:52.431Z,45.85
2019-04-06T06:26:06.920Z,43.28
2019-04-06T06:27:22.626Z,45.25
2019-04-06T06:28:35.219Z,50.20
2019-04-06T06:29:48.545Z,46.25
2019-04-06T06:31:01.806Z,46.37
2019-04-06T06:32:16.170Z,44.18
2019-04-06T06:33:29.436Z,48.63
2019-04-06T06:34:42.993Z,49.98
2019-04-06T06:35:56.289Z,44.35
2019-04-06T06:37:09.591Z,46.95
2019-04-06T06:38:22.866Z,50.35
2019-04-06T06:39:36.127Z,44.63
2019-04-06T06:40:49.346Z,46.60
2019-04-06T06:42:03.111Z,46.90
2019-04-06T06:43:16.368Z,51.30
2019-04-06T06:44:29.713Z,47.43
2019-04-06T06:45:43.014Z,47.67
2019-04-06T06:46:56.315Z,48.68
2019-04-06T06:48:09.868Z,46.15
2019-04-06T06:49:23.380Z,49.27
2019-04-06T06:50:36.649Z,43.05
2019-04-06T06:51:49.881Z,44.42
2019-04-06T06:53:03.144Z,52.20
2019-04-06T06:54:16.553Z,49.73
2019-04-06T06:55:29.848Z,51.58
2019-04-06T06:56:43.185Z,49.23
2019-04-06T06:57:57.613Z,48.58
2019-04-06T06:59:10.862Z,50.70
2019-04-06T07:00:24.392Z,48.17
2019-04-06T07:01:37.681Z,46.33
2019-04-06T07:02:51.031Z,48.15
2019-04-06T07:04:04.263Z,52.58
2019-04-06T07:05:17.506Z,52.65
2019-04-06T07:06:32.241Z,49.05
2019-04-06T07:07:45.520Z,57.53
2019-04-06T07:08:58.812Z,48.50
2019-04-06T07:10:12.058Z,56.23
2019-04-06T07:11:25.300Z,54.53
2019-04-06T07:12:38.548Z,50.83
2019-04-06T07:13:51.849Z,52.67
2019-04-06T07:15:06.698Z,53.75
2019-04-06T07:16:19.942Z,58.52
2019-04-06T07:17:33.206Z,52.65
2019-04-06T07:18:46.458Z,53.65
2019-04-06T07:19:59.705Z,55.88
2019-04-06T07:21:12.976Z,53.23
2019-04-06T07:22:26.254Z,53.60
2019-04-06T07:23:39.754Z,51.65
2019-04-06T07:24:53.137Z,57.80
2019-04-06T07:26:06.522Z,56.88
2019-04-06T07:27:21.423Z,59.77
2019-04-06T07:28:38.084Z,53.17
2019-04-06T07:29:49.633Z,53.48
2019-04-06T07:31:02.896Z,57.88
2019-04-06T07:32:16.197Z,54.85
2019-04-06T07:33:29.470Z,53.58
2019-04-06T07:34:42.722Z,54.20
2019-04-06T07:35:55.966Z,59.73
2019-04-06T07:37:09.311Z,53.73
2019-04-06T07:38:22.560Z,52.67
2019-04-06T07:39:36.684Z,59.40
2019-04-06T07:40:49.925Z,54.05
2019-04-06T07:42:03.204Z,53.38
2019-04-06T07:43:16.441Z,52.93
2019-04-06T07:44:30.341Z,55.73
2019-04-06T07:45:43.603Z,56.23
2019-04-06T07:46:56.895Z,56.02
2019-04-06T07:48:10.209Z,57.90
2019-04-06T07:49:23.459Z,53.68
2019-04-06T07:50:36.798Z,53.23
2019-04-06T07:51:50.165Z,54.75
2019-04-06T07:53:03.564Z,55.40
2019-04-06T07:54:16.931Z,52.78
2019-04-06T07:55:30.202Z,54.00
2019-04-06T07:56:43.584Z,59.73
2019-04-06T07:57:56.939Z,52.17
2019-04-06T07:59:11.599Z,54.23
2019-04-06T08:00:25.030Z,53.15
2019-04-06T08:01:38.385Z,52.00
2019-04-06T08:02:51.770Z,58.23
2019-04-06T08:04:05.122Z,51.95
2019-04-06T08:05:19.822Z,55.55
2019-04-06T08:06:33.089Z,58.23
2019-04-06T08:07:46.605Z,55.78
2019-04-06T08:09:00.085Z,53.38
2019-04-06T08:10:13.381Z,57.67
2019-04-06T08:11:26.672Z,57.70
2019-04-06T08:12:40.108Z,51.13
2019-04-06T08:13:55.449Z,52.98
2019-04-06T08:15:08.680Z,52.70
2019-04-06T08:16:22.024Z,52.30
2019-04-06T08:17:35.376Z,56.05
2019-04-06T08:18:48.886Z,54.23
2019-04-06T08:20:02.264Z,52.90
2019-04-06T08:21:15.770Z,57.20
2019-04-06T08:22:29.095Z,54.42
2019-04-06T08:23:42.393Z,52.93
2019-04-06T08:24:55.752Z,51.33
2019-04-06T08:26:09.082Z,49.40
2019-04-06T08:27:22.379Z,53.15
2019-04-06T08:28:35.860Z,54.50
2019-04-06T08:29:49.216Z,53.68
2019-04-06T08:31:02.476Z,48.52
2019-04-06T08:32:16.730Z,49.48
2019-04-06T08:33:30.040Z,49.25
2019-04-06T08:34:43.476Z,51.50
2019-04-06T08:35:56.764Z,50.25
2019-04-06T08:37:10.227Z,52.38
2019-04-06T08:38:23.809Z,57.55
2019-04-06T08:39:37.145Z,47.93
2019-04-06T08:40:50.544Z,55.35
2019-04-06T08:42:03.865Z,50.08
2019-04-06T08:43:17.165Z,50.38
2019-04-06T08:44:32.352Z,48.38
2019-04-06T08:47:26.197Z,48.87
2019-04-06T08:48:39.687Z,55.88
2019-04-06T08:51:34.023Z,50.00
2019-04-06T08:52:48.764Z,53.68
2019-04-06T08:54:02.093Z,55.83
2019-04-06T08:55:18.022Z,47.65
2019-04-06T08:56:31.398Z,48.92
2019-04-06T08:57:44.774Z,50.50
2019-04-06T08:58:58.053Z,50.78
2019-04-06T09:00:11.304Z,51.20
2019-04-06T09:01:24.619Z,48.28
2019-04-06T09:02:37.859Z,54.95
2019-04-06T09:03:51.640Z,50.58
2019-04-06T09:05:08.667Z,48.15
2019-04-06T09:06:24.705Z,47.67
2019-04-06T09:07:40.576Z,50.08
2019-04-06T09:08:53.095Z,48.42
2019-04-06T09:10:07.085Z,45.40
2019-04-06T09:11:20.546Z,51.63
2019-04-06T09:12:33.813Z,49.40
2019-04-06T09:13:47.323Z,47.83
2019-04-06T09:15:00.751Z,46.90
2019-04-06T09:16:14.086Z,47.08
2019-04-06T09:17:27.630Z,46.63
2019-04-06T09:18:40.997Z,46.88
2019-04-06T09:19:54.592Z,50.58
2019-04-06T09:21:08.050Z,50.28
2019-04-06T09:22:21.364Z,45.65
2019-04-06T09:23:35.970Z,48.85
2019-04-06T09:24:49.301Z,45.33
2019-04-06T09:26:02.796Z,43.83
2019-04-06T09:27:16.195Z,44.55
2019-04-06T09:28:29.726Z,49.95
2019-04-06T09:29:43.007Z,47.15
2019-04-06T09:30:56.348Z,47.70
2019-04-06T09:32:09.661Z,47.55
2019-04-06T09:33:23.125Z,46.53
2019-04-06T09:34:36.678Z,45.50
2019-04-06T09:35:50.169Z,43.87
2019-04-06T09:37:03.533Z,48.73
2019-04-06T09:38:19.858Z,49.03
2019-04-06T09:39:33.133Z,43.38
2019-04-06T09:40:50.154Z,43.73
2019-04-06T09:42:03.668Z,48.80
2019-04-06T09:43:17.239Z,43.38
2019-04-06T09:44:48.837Z,42.50
2019-04-06T09:46:09.654Z,42.75
2019-04-06T09:47:39.274Z,43.05
2019-04-06T09:49:06.287Z,41.80
2019-04-06T09:50:33.249Z,42.85
2019-04-06T09:51:51.052Z,38.67
2019-04-06T09:53:15.247Z,39.23
2019-04-06T09:54:30.202Z,37.55
2019-04-06T09:56:01.089Z,38.70
2019-04-06T09:57:23.251Z,39.20
2019-04-06T09:58:38.206Z,39.10
2019-04-06T09:59:54.306Z,39.88
2019-04-06T10:01:36.944Z,40.28
2019-04-06T10:02:44.729Z,39.38
2019-04-06T10:03:59.797Z,39.88
2019-04-06T10:05:17.689Z,37.98
2019-04-06T10:06:44.787Z,36.20
2019-04-06T10:08:07.609Z,38.73
2019-04-06T10:09:22.609Z,40.50
2019-04-06T10:10:49.772Z,35.60
2019-04-06T10:12:07.620Z,35.23
2019-04-06T10:13:28.294Z,34.18
2019-04-06T10:14:43.262Z,36.00
2019-04-06T10:16:14.748Z,36.75
2019-04-06T10:17:41.871Z,35.03
2019-04-06T10:18:56.855Z,36.60
2019-04-06T10:20:11.987Z,32.75
2019-04-06T10:21:36.146Z,36.33
2019-04-06T10:23:03.494Z,32.10
2019-04-06T10:24:18.500Z,30.55
2019-04-06T10:25:36.681Z,32.55
2019-04-06T10:26:51.633Z,36.53
2019-04-06T10:28:16.241Z,31.35
2019-04-06T10:29:50.226Z,32.00
2019-04-06T10:31:05.740Z,33.85
2019-04-06T10:32:23.962Z,28.32
2019-04-06T10:33:56.990Z,26.97
2019-04-06T10:35:24.118Z,27.20
2019-04-06T10:36:45.056Z,32.23
2019-04-06T10:38:18.077Z,30.72
2019-04-06T10:39:35.642Z,29.82
2019-04-06T10:40:50.590Z,29.45
2019-04-06T10:42:06.010Z,31.48
2019-04-06T10:43:23.869Z,26.70
2019-04-06T10:44:39.046Z,29.85
2019-04-06T10:45:54.275Z,29.65
2019-04-06T10:47:15.144Z,26.10
2019-04-06T10:48:32.884Z,27.07
2019-04-06T10:49:56.766Z,24.67
2019-04-06T10:51:14.596Z,26.57
2019-04-06T10:52:35.089Z,27.93
2019-04-06T10:54:06.151Z,27.45
2019-04-06T10:55:27.016Z,26.17
2019-04-06T10:56:47.902Z,31.27
2019-04-06T10:58:02.809Z,27.05
2019-04-06T10:59:17.699Z,26.45
2019-04-06T11:00:34.257Z,26.75
2019-04-06T11:01:51.912Z,23.15
2019-04-06T11:03:24.734Z,23.10
2019-04-06T11:04:48.710Z,28.30
2019-04-06T11:06:03.760Z,26.30
2019-04-06T11:07:33.935Z,26.27
2019-04-06T11:09:00.614Z,26.82
2019-04-06T11:10:21.292Z,23.25
2019-04-06T11:11:48.154Z,25.50
2019-04-06T11:13:18.078Z,23.47
2019-04-06T11:14:49.516Z,30.80
2019-04-06T11:16:07.527Z,24.95
2019-04-06T11:17:25.565Z,26.12
2019-04-06T11:18:46.525Z,27.45
2019-04-06T11:20:01.920Z,27.40
2019-04-06T11:21:19.471Z,28.32
2019-04-06T11:22:49.662Z,26.73
2019-04-06T11:24:16.282Z,28.62
2019-04-06T11:25:34.260Z,26.05
2019-04-06T11:27:04.369Z,24.60
2019-04-06T11:28:28.416Z,24.92
2019-04-06T11:30:12.387Z,24.15
2019-04-06T11:31:16.533Z,22.90
2019-04-06T11:32:34.350Z,27.22
2019-04-06T11:33:52.698Z,26.45
2019-04-06T11:35:13.952Z,26.62
2019-04-06T11:36:28.933Z,26.85
2019-04-06T11:37:43.895Z,26.57
2019-04-06T11:39:05.001Z,28.67
2019-04-06T11:40:19.920Z,24.87
2019-04-06T11:41:51.411Z,25.75
2019-04-06T11:43:06.530Z,27.30
2019-04-06T11:44:21.415Z,27.77
2019-04-06T11:45:39.340Z,29.02
2019-04-06T11:46:54.255Z,26.73
2019-04-06T11:48:09.172Z,22.95
2019-04-06T11:49:40.871Z,25.95
2019-04-06T11:51:12.716Z,22.77
2019-04-06T11:52:30.334Z,17.50
2019-04-06T11:54:01.726Z,17.77
2019-04-06T11:55:16.613Z,21.50
2019-04-06T11:56:34.170Z,19.55
2019-04-06T11:57:51.773Z,19.05
2019-04-06T11:59:23.906Z,20.35
2019-04-06T12:00:50.962Z,22.82
2019-04-06T12:02:08.937Z,20.43
2019-04-06T12:03:26.710Z,21.37
2019-04-06T12:04:45.263Z,24.23
2019-04-06T12:06:09.171Z,21.97
2019-04-06T12:07:42.250Z,26.70
2019-04-06T12:09:11.980Z,26.45
2019-04-06T12:10:43.035Z,26.80
2019-04-06T12:12:12.963Z,22.75
2019-04-06T12:13:33.517Z,22.37
2019-04-06T12:14:54.154Z,19.60
2019-04-06T12:16:21.346Z,17.67
2019-04-06T12:17:45.490Z,19.05
2019-04-06T12:19:03.605Z,19.40
2019-04-06T12:20:21.622Z,23.90
2019-04-06T12:21:45.792Z,20.50
2019-04-06T12:23:09.916Z,17.73
2019-04-06T12:24:29.355Z,16.80
2019-04-06T12:25:44.336Z,20.05
2019-04-06T12:27:01.646Z,20.57
2019-04-06T12:28:33.188Z,21.27
2019-04-06T12:30:00.262Z,20.23
2019-04-06T12:31:22.311Z,20.60
2019-04-06T12:32:53.837Z,22.10
2019-04-06T12:34:24.649Z,22.07
2019-04-06T12:35:51.698Z,22.50
2019-04-06T12:37:21.630Z,20.88
2019-04-06T12:38:51.579Z,22.82
2019-04-06T12:40:23.096Z,20.80
2019-04-06T12:41:47.280Z,23.90
2019-04-06T12:43:02.139Z,21.90
2019-04-06T12:44:33.294Z,22.35
2019-04-06T12:46:04.680Z,19.40
2019-04-06T12:47:19.619Z,19.45
2019-04-06T12:48:34.896Z,21.45
2019-04-06T12:50:06.361Z,21.73
2019-04-06T12:51:24.408Z,19.77
2019-04-06T12:52:45.685Z,23.02
2019-04-06T12:54:12.564Z,19.92
2019-04-06T12:55:30.183Z,17.12
2019-04-06T12:56:54.398Z,20.62
2019-04-06T12:58:09.322Z,19.05
2019-04-06T12:59:30.167Z,19.32
2019-04-06T13:00:52.444Z,23.12
2019-04-06T13:02:11.271Z,20.02
2019-04-06T13:03:28.961Z,20.55
2019-04-06T13:04:44.138Z,29.63
2019-04-06T13:05:59.149Z,18.37
2019-04-06T13:07:14.361Z,23.22
2019-04-06T13:08:44.370Z,19.75
2019-04-06T13:09:59.442Z,19.82
2019-04-06T13:11:19.701Z,19.30
2019-04-06T13:12:46.008Z,18.32
2019-04-06T13:14:09.900Z,16.27
2019-04-06T13:15:24.860Z,17.20
2019-04-06T13:16:40.012Z,16.67
2019-04-06T13:18:11.556Z,14.83
2019-04-06T13:19:26.485Z,15.85
2019-04-06T13:20:53.633Z,15.43
2019-04-06T13:22:14.732Z,14.28
2019-04-06T13:23:41.946Z,12.50
2019-04-06T13:25:00.005Z,14.98
2019-04-06T13:26:26.778Z,13.93
2019-04-06T13:27:54.301Z,18.98
2019-04-06T13:29:09.227Z,13.13
2019-04-06T13:30:33.390Z,13.88
2019-04-06T13:31:51.013Z,14.58
2019-04-06T13:33:14.945Z,15.03
2019-04-06T13:34:32.478Z,12.43
2019-04-06T13:35:50.326Z,13.28
2019-04-06T13:37:05.395Z,11.65
2019-04-06T13:38:23.282Z,12.13
2019-04-06T13:39:41.158Z,12.07
2019-04-06T13:41:02.035Z,11.35
2019-04-06T13:42:26.023Z,11.93
2019-04-06T13:43:41.195Z,10.80
2019-04-06T13:45:05.677Z,9.83
2019-04-06T13:46:20.751Z,10.82
2019-04-06T13:47:42.724Z,10.40
2019-04-06T13:49:00.367Z,9.50
2019-04-06T13:50:15.581Z,8.98
2019-04-06T13:51:30.831Z,9.03
2019-04-06T13:53:02.017Z,9.28
2019-04-06T13:54:32.179Z,8.63
2019-04-06T13:55:47.333Z,10.15
2019-04-06T13:57:08.172Z,9.48
2019-04-06T13:58:38.011Z,9.40
2019-04-06T13:59:53.144Z,12.28
2019-04-06T14:01:16.135Z,8.78
2019-04-06T14:02:41.505Z,14.85
2019-04-06T14:04:11.630Z,10.43
2019-04-06T14:05:29.348Z,7.53
2019-04-06T14:06:56.841Z,15.13
2019-04-06T14:08:26.733Z,8.43
2019-04-06T14:09:41.632Z,7.60
2019-04-06T14:11:02.524Z,7.65
2019-04-06T14:12:26.369Z,6.95
2019-04-06T14:13:47.018Z,8.28
2019-04-06T14:15:02.436Z,7.75
2019-04-06T14:16:35.645Z,8.08
2019-04-06T14:18:08.078Z,9.00
2019-04-06T14:19:39.531Z,9.08
2019-04-06T14:21:03.692Z,8.88
2019-04-06T14:22:21.299Z,12.65
2019-04-06T14:23:36.502Z,11.40
2019-04-06T14:24:54.134Z,9.80
2019-04-06T14:26:27.335Z,9.78
2019-04-06T14:27:58.888Z,8.25
2019-04-06T14:30:40.309Z,10.13
2019-04-06T14:32:01.163Z,8.73
2019-04-06T14:33:32.257Z,8.60
2019-04-06T14:34:50.105Z,8.68
2019-04-06T14:36:05.001Z,10.45
2019-04-06T14:37:22.899Z,9.33
2019-04-06T14:38:37.800Z,10.20
2019-04-06T14:40:09.310Z,8.58
2019-04-06T14:41:27.276Z,8.78
2019-04-06T14:42:57.910Z,10.95
2019-04-06T14:44:18.538Z,10.08
2019-04-06T14:45:33.591Z,8.50
2019-04-06T14:46:48.561Z,8.83
2019-04-06T14:48:19.619Z,8.80
2019-04-06T14:49:51.094Z,8.50
2019-04-06T14:51:18.351Z,7.62
2019-04-06T14:52:36.201Z,7.92
2019-04-06T14:53:57.094Z,9.13
2019-04-06T14:55:15.168Z,8.05
2019-04-06T14:56:33.452Z,8.95
2019-04-06T14:57:51.300Z,7.90
2019-04-06T14:59:06.244Z,6.87
2019-04-06T15:00:27.092Z,7.08
2019-04-06T15:01:55.629Z,8.10
2019-04-06T15:03:04.709Z,9.65
2019-04-06T15:04:22.466Z,10.70
2019-04-06T15:05:54.032Z,7.58
2019-04-06T15:07:12.135Z,9.58
2019-04-06T15:08:28.594Z,8.10
2019-04-06T15:09:49.666Z,8.15
2019-04-06T15:12:31.022Z,8.33
2019-04-06T15:14:01.227Z,8.25
2019-04-06T15:15:34.178Z,8.78
2019-04-06T15:16:58.067Z,8.08
2019-04-06T15:18:19.526Z,8.58
2019-04-06T15:19:34.512Z,7.47
2019-04-06T15:20:49.555Z,8.50
2019-04-06T15:22:04.492Z,8.03
2019-04-06T15:23:22.054Z,9.83
2019-04-06T15:24:52.273Z,9.23
2019-04-06T15:26:13.144Z,7.87
2019-04-06T15:27:36.852Z,9.95
2019-04-06T15:29:01.458Z,9.05
2019-04-06T15:30:28.007Z,11.68
2019-04-06T15:31:49.837Z,8.43
2019-04-06T15:33:02.076Z,9.98
2019-04-06T15:34:33.153Z,8.48
2019-04-06T15:35:50.600Z,12.70
2019-04-06T15:37:06.771Z,9.20
2019-04-06T15:38:24.647Z,8.95
2019-04-06T15:39:39.654Z,8.38
2019-04-06T15:41:11.194Z,8.75
2019-04-06T15:42:42.855Z,8.98
2019-04-06T15:44:06.954Z,9.58
2019-04-06T15:45:24.868Z,10.32
2019-04-06T15:46:48.597Z,11.40
2019-04-06T15:48:20.061Z,10.40
2019-04-06T15:49:37.522Z,11.53
2019-04-06T15:51:01.174Z,10.05
2019-04-06T15:52:32.412Z,8.23
2019-04-06T15:54:03.386Z,11.03
2019-04-06T15:55:18.234Z,9.28
2019-04-06T15:56:45.011Z,8.90
2019-04-06T15:58:15.654Z,12.50
2019-04-06T15:59:30.567Z,13.03
2019-04-06T16:00:45.213Z,9.88
2019-04-06T16:02:16.563Z,7.62
2019-04-06T16:03:40.277Z,8.80
2019-04-06T16:04:57.932Z,7.05
2019-04-06T16:06:12.632Z,8.05
2019-04-06T16:07:33.813Z,13.43
2019-04-06T16:10:17.771Z,9.50
2019-04-06T16:11:33.210Z,8.48
2019-04-06T16:13:02.832Z,7.72
2019-04-06T16:14:29.561Z,7.62
2019-04-06T16:15:44.286Z,7.67
2019-04-06T16:17:11.808Z,7.15
2019-04-06T16:18:29.426Z,8.20
2019-04-06T16:19:47.313Z,6.87
2019-04-06T16:21:07.923Z,6.83
2019-04-06T16:22:25.446Z,9.35
2019-04-06T16:23:40.204Z,9.18
2019-04-06T16:25:00.672Z,7.08
2019-04-06T16:26:24.061Z,16.07
2019-04-06T16:27:48.313Z,6.97
2019-04-06T16:29:19.720Z,8.15
2019-04-06T16:30:34.832Z,7.58
2019-04-06T16:31:50.015Z,7.12
2019-04-06T16:33:08.961Z,7.47
2019-04-06T16:34:27.812Z,9.00
2019-04-06T16:35:45.504Z,8.88
2019-04-06T16:37:03.516Z,7.40
2019-04-06T16:38:36.503Z,7.33
2019-04-06T16:39:57.454Z,6.40
2019-04-06T16:41:15.260Z,12.80
2019-04-06T16:42:35.853Z,8.43
2019-04-06T16:44:02.675Z,9.80